Fairview, Utah
Current Conditions -  °F | °C
As of 12:53 AM on Sunday 26 Oct 2014 (Local Time) from KPUC Reporting Station
Clear Clear  
Wind Chill: 51°   Ceiling: Unl
Heat Index: 51°   Visibility: 10mi
Dew Point: 31°   Wind: 8mph
Humidity: 46%   Direction: 60°ENE
Pressure: 30.05"   Gusts: NA
Location:  39.63°N, 111.44°W
Report Text: KPUC 260653Z AUTO 06007KT 10SM CLR 11/M01 A3005 RMK AO2 SLP132 T01061006 402170050 TSNO
Loading
Personal Weather Stations






























Interactive Weather Map
Tropical Storm Tracking
New forecast layout! Learn more

10-Day Weather Forecast

Advertisements
Track Severe Weather on mobile